Time;durP1;ratioP1;P1;durP2;ratioP2;P2;SDS_P1;SDS_P2;PMS_P1;PMS_P2;Temp;Humidity;BMP_temperature;BMP_pressure;BME280_temperature;BME280_humidity;BME280_pressure;Samples;Min_cycle;Max_cycle;Signal;HPM_P1;HPM_P2
2024/03/04 00:02:25;;;;;;;13.93;9.63;;;7.20;99.90;;;;;;5055903;27;20798;-76
2024/03/04 00:04:52;;;;;;;13.87;10.43;;;7.20;99.90;;;;;;5130618;27;20621;-76
2024/03/04 00:07:19;;;;;;;13.00;9.97;;;7.20;99.90;;;;;;5054683;27;21068;-76
2024/03/04 00:09:46;;;;;;;12.67;9.70;;;7.10;99.80;;;;;;5101691;27;20625;-76
2024/03/04 00:12:14;;;;;;;13.07;9.90;;;7.00;99.80;;;;;;5094689;27;20649;-76
2024/03/04 00:14:41;;;;;;;10.43;8.10;;;7.10;99.70;;;;;;5062682;27;20719;-76
2024/03/04 00:17:07;;;;;;;12.10;8.97;;;7.00;99.70;;;;;;5117064;27;20678;-77
2024/03/04 00:19:36;;;;;;;11.93;9.47;;;7.00;99.70;;;;;;5077533;27;21184;-74
2024/03/04 00:22:03;;;;;;;15.60;9.70;;;6.90;99.60;;;;;;5040923;28;20618;-75
2024/03/04 00:24:32;;;;;;;13.47;10.27;;;6.80;99.90;;;;;;5051589;27;20624;-75
2024/03/04 00:26:58;;;;;;;11.13;8.93;;;6.90;99.90;;;;;;5031327;28;20623;-75
2024/03/04 00:29:27;;;;;;;11.17;9.37;;;6.90;99.50;;;;;;5050631;27;20625;-75
2024/03/04 00:31:54;;;;;;;11.33;8.70;;;6.90;99.50;;;;;;5125924;27;21231;-75
2024/03/04 00:34:21;;;;;;;14.53;10.00;;;7.00;99.80;;;;;;5080064;27;20646;-75
2024/03/04 00:36:51;;;;;;;13.33;9.27;;;6.90;99.90;;;;;;5037161;28;20658;-76
2024/03/04 00:39:17;;;;;;;14.03;7.40;;;6.90;99.90;;;;;;5078377;27;20626;-76
2024/03/04 00:41:44;;;;;;;11.83;8.83;;;6.80;99.90;;;;;;5117234;27;20725;-75
2024/03/04 00:44:12;;;;;;;11.10;8.77;;;6.80;99.90;;;;;;5041099;28;20630;-76
2024/03/04 00:46:41;;;;;;;10.57;9.07;;;6.70;99.90;;;;;;5044056;28;20636;-75
2024/03/04 00:49:08;;;;;;;8.87;7.97;;;6.70;99.90;;;;;;5105245;27;20627;-76
2024/03/04 00:51:36;;;;;;;11.90;8.73;;;6.60;99.90;;;;;;5025150;28;20957;-76
2024/03/04 00:54:05;;;;;;;10.60;8.40;;;6.60;99.90;;;;;;5031656;28;20623;-75
2024/03/04 00:56:31;;;;;;;9.70;8.05;;;6.60;99.90;;;;;;5047725;28;20215;-75
2024/03/04 00:58:59;;;;;;;11.67;8.57;;;6.70;99.80;;;;;;5067986;27;20210;-75
2024/03/04 01:01:25;;;;;;;14.13;9.37;;;6.70;99.60;;;;;;5062074;28;20627;-75
2024/03/04 01:03:53;;;;;;;10.10;9.10;;;6.70;99.40;;;;;;5092882;28;21233;-75
2024/03/04 01:06:20;;;;;;;10.80;8.30;;;6.70;99.40;;;;;;5099967;28;20244;-76
2024/03/04 01:08:47;;;;;;;11.13;8.67;;;7.20;99.90;;;;;;5078712;28;20642;-76
2024/03/04 01:11:15;;;;;;;10.20;8.47;;;6.70;99.90;;;;;;5008092;28;20716;-75
2024/03/04 01:13:42;;;;;;;11.00;8.53;;;6.50;99.90;;;;;;5045255;28;20626;-75
2024/03/04 01:16:09;;;;;;;10.93;8.30;;;6.60;99.90;;;;;;5104177;27;20615;-76
2024/03/04 01:18:36;;;;;;;14.07;10.20;;;6.70;99.90;;;;;;5098259;27;20669;-76
2024/03/04 01:21:06;;;;;;;11.55;9.38;;;6.70;99.90;;;;;;5065241;27;20618;-76
2024/03/04 01:23:33;;;;;;;11.18;10.07;;;6.70;99.90;;;;;;5083037;27;20239;-75
2024/03/04 01:26:00;;;;;;;12.00;9.63;;;6.80;99.90;;;;;;5028792;28;20251;-75
2024/03/04 01:28:28;;;;;;;10.43;8.60;;;6.80;99.90;;;;;;5043898;28;20679;-76
2024/03/04 01:30:55;;;;;;;11.73;8.60;;;6.80;99.80;;;;;;5093508;27;20548;-76
2024/03/04 01:33:22;;;;;;;11.70;8.65;;;6.80;99.70;;;;;;5108371;27;20649;-76
2024/03/04 01:35:49;;;;;;;11.70;8.20;;;6.80;99.90;;;;;;5053839;27;20282;-75
2024/03/04 01:38:16;;;;;;;9.37;7.77;;;6.70;99.90;;;;;;5133543;27;20229;-76
2024/03/04 01:40:43;;;;;;;10.27;7.35;;;6.70;99.90;;;;;;5062238;27;20626;-76
2024/03/04 01:43:10;;;;;;;16.15;8.23;;;6.70;99.90;;;;;;5099398;27;20198;-76
2024/03/04 01:45:39;;;;;;;10.60;8.77;;;6.70;99.90;;;;;;5052479;27;20208;-76
2024/03/04 01:48:09;;;;;;;9.40;7.27;;;6.70;99.90;;;;;;5063414;27;20671;-76
2024/03/04 01:50:39;;;;;;;12.30;7.97;;;6.70;99.90;;;;;;5071159;27;20615;-75
2024/03/04 01:53:07;;;;;;;8.17;7.13;;;6.60;99.90;;;;;;5071022;27;20979;-76
2024/03/04 01:55:38;;;;;;;10.77;8.27;;;6.60;99.90;;;;;;5042899;28;21107;-75
2024/03/04 01:58:06;;;;;;;10.93;8.00;;;6.60;99.90;;;;;;5092476;27;20665;-75
2024/03/04 02:00:39;;;;;;;8.47;7.40;;;6.70;99.90;;;;;;5106652;27;21042;-76
2024/03/04 02:03:07;;;;;;;9.13;7.72;;;6.30;99.90;;;;;;5057083;27;20628;-76
2024/03/04 02:05:35;;;;;;;10.65;7.30;;;6.50;99.90;;;;;;5132486;27;20733;-75
2024/03/04 02:08:03;;;;;;;9.60;8.37;;;6.50;99.90;;;;;;5055517;27;20200;-75
2024/03/04 02:10:31;;;;;;;12.02;9.15;;;6.50;99.90;;;;;;5105493;27;20649;-75
2024/03/04 02:12:59;;;;;;;11.00;8.93;;;6.50;99.90;;;;;;5093449;27;20235;-75
2024/03/04 02:15:26;;;;;;;9.40;7.40;;;6.40;99.90;;;;;;5067375;27;20551;-76
2024/03/04 02:17:53;;;;;;;8.70;7.77;;;6.40;99.90;;;;;;5132288;27;21201;-76
2024/03/04 02:20:24;;;;;;;12.90;7.20;;;6.40;99.90;;;;;;5132282;27;21177;-75
2024/03/04 02:22:54;;;;;;;8.70;7.80;;;6.40;99.90;;;;;;5063261;27;20618;-76
2024/03/04 02:25:22;;;;;;;9.50;7.63;;;6.20;99.90;;;;;;5045794;28;20195;-76
2024/03/04 02:27:49;;;;;;;8.57;6.88;;;6.20;99.90;;;;;;5078382;27;20208;-76
2024/03/04 02:30:17;;;;;;;10.52;8.20;;;6.20;99.90;;;;;;5121040;27;20722;-76
2024/03/04 02:32:46;;;;;;;9.50;7.83;;;6.20;99.90;;;;;;5047719;28;20661;-75
2024/03/04 02:35:14;;;;;;;10.45;8.57;;;6.20;99.90;;;;;;5126138;27;20650;-75
2024/03/04 02:37:41;;;;;;;13.15;7.82;;;6.10;99.90;;;;;;5072029;27;20272;-75
2024/03/04 02:40:11;;;;;;;11.70;8.50;;;6.00;99.90;;;;;;5087335;27;20216;-75
2024/03/04 02:42:39;;;;;;;9.55;8.40;;;6.00;99.90;;;;;;5111287;27;20234;-75
2024/03/04 02:45:07;;;;;;;13.45;9.27;;;6.00;99.90;;;;;;5035678;28;20257;-76
2024/03/04 02:47:35;;;;;;;15.82;9.80;;;5.90;99.90;;;;;;5046948;28;20661;-76
2024/03/04 02:50:05;;;;;;;10.45;9.05;;;5.90;99.90;;;;;;5077869;27;20197;-76
2024/03/04 02:52:32;;;;;;;11.05;8.82;;;6.00;99.90;;;;;;5055703;27;20196;-75
2024/03/04 02:55:00;;;;;;;12.02;9.35;;;5.90;99.90;;;;;;5034986;28;20196;-76
2024/03/04 02:57:28;;;;;;;11.07;8.80;;;5.90;99.90;;;;;;5058096;27;20219;-76
2024/03/04 02:59:55;;;;;;;15.15;10.52;;;6.00;99.90;;;;;;5132003;27;20570;-75
2024/03/04 03:02:22;;;;;;;12.40;7.80;;;5.90;99.90;;;;;;5054421;27;20192;-76
2024/03/04 03:04:49;;;;;;;11.10;8.70;;;5.80;99.90;;;;;;5104804;27;20309;-76
2024/03/04 03:07:15;;;;;;;10.93;8.48;;;5.70;99.90;;;;;;5093552;27;20199;-75
2024/03/04 03:09:43;;;;;;;11.07;8.77;;;5.70;99.90;;;;;;5065862;27;20224;-76
2024/03/04 03:12:11;;;;;;;12.02;8.80;;;5.70;99.90;;;;;;5131797;27;20680;-76
2024/03/04 03:14:39;;;;;;;12.57;9.43;;;5.70;99.90;;;;;;5007763;28;20217;-75
2024/03/04 03:17:07;;;;;;;11.95;9.25;;;5.70;99.90;;;;;;5037728;28;20592;-75
2024/03/04 03:19:36;;;;;;;9.23;8.07;;;5.70;99.90;;;;;;5093709;27;20221;-77
2024/03/04 03:22:04;;;;;;;11.65;9.63;;;5.60;99.90;;;;;;5104062;27;20291;-76
2024/03/04 03:24:32;;;;;;;11.88;9.60;;;5.60;99.90;;;;;;5041390;28;20201;-76
2024/03/04 03:27:00;;;;;;;10.82;9.18;;;5.60;99.90;;;;;;5046492;28;20211;-75
2024/03/04 03:29:28;;;;;;;10.52;9.18;;;5.60;99.90;;;;;;5121871;27;20201;-76
2024/03/04 03:31:57;;;;;;;11.00;9.13;;;5.60;99.90;;;;;;5074933;27;20204;-75
2024/03/04 03:34:25;;;;;;;12.73;10.35;;;5.70;99.90;;;;;;5084697;27;20213;-75
2024/03/04 03:36:53;;;;;;;11.80;9.13;;;5.70;99.90;;;;;;5113949;27;20665;-76
2024/03/04 03:39:20;;;;;;;10.70;8.90;;;5.70;99.90;;;;;;5081413;27;20480;-75
2024/03/04 03:41:48;;;;;;;11.10;9.00;;;5.70;99.90;;;;;;5007305;28;20209;-75
2024/03/04 03:44:17;;;;;;;11.55;9.15;;;5.70;99.90;;;;;;5032262;28;20199;-76
2024/03/04 03:46:44;;;;;;;13.15;9.18;;;5.70;99.90;;;;;;5037781;28;20207;-75
2024/03/04 03:49:15;;;;;;;10.80;9.70;;;5.70;99.90;;;;;;5072219;27;20285;-75
2024/03/04 03:51:42;;;;;;;11.18;8.65;;;5.70;99.90;;;;;;5037940;27;20215;-75
2024/03/04 03:54:09;;;;;;;11.70;8.57;;;5.70;99.90;;;;;;5026684;28;20603;-76
2024/03/04 03:56:40;;;;;;;11.02;8.88;;;5.70;99.90;;;;;;5043682;28;20236;-76
2024/03/04 03:59:07;;;;;;;10.23;8.63;;;5.70;99.90;;;;;;5103990;27;20238;-76
2024/03/04 04:01:33;;;;;;;10.80;8.75;;;5.70;99.90;;;;;;5094256;27;20204;-76
2024/03/04 04:04:00;;;;;;;11.38;9.40;;;5.80;99.90;;;;;;5062748;27;20280;-76
2024/03/04 04:06:29;;;;;;;13.82;10.27;;;5.90;99.90;;;;;;5129846;27;20203;-76
2024/03/04 04:08:55;;;;;;;13.52;10.63;;;5.80;99.90;;;;;;5047004;28;20204;-76
2024/03/04 04:11:22;;;;;;;9.02;8.13;;;5.90;99.90;;;;;;5108411;27;20199;-76
2024/03/04 04:13:49;;;;;;;13.45;10.00;;;5.90;99.90;;;;;;5130350;27;20224;-76
2024/03/04 04:16:16;;;;;;;11.63;9.10;;;5.90;99.90;;;;;;5106709;27;20195;-75
2024/03/04 04:18:42;;;;;;;13.73;10.27;;;6.00;99.90;;;;;;5049275;28;20219;-76
2024/03/04 04:21:09;;;;;;;12.52;10.02;;;6.10;99.90;;;;;;5130354;27;20211;-76
2024/03/04 04:23:37;;;;;;;17.15;12.18;;;6.10;99.90;;;;;;5061286;27;20556;-76
2024/03/04 04:26:05;;;;;;;21.05;12.38;;;6.00;99.90;;;;;;5029649;28;20228;-76
2024/03/04 04:28:32;;;;;;;18.45;12.80;;;6.20;99.90;;;;;;5076756;27;20204;-76
2024/03/04 04:30:58;;;;;;;20.33;11.90;;;6.30;99.90;;;;;;5119464;27;20258;-76
2024/03/04 04:33:25;;;;;;;20.35;13.85;;;6.30;99.90;;;;;;5046277;28;20210;-76
2024/03/04 04:35:52;;;;;;;19.83;14.10;;;6.40;99.90;;;;;;5120942;27;20292;-76
2024/03/04 04:38:20;;;;;;;17.10;12.05;;;6.60;99.90;;;;;;5073976;27;20646;-76
2024/03/04 04:40:50;;;;;;;13.73;11.80;;;6.50;99.90;;;;;;5082536;27;20204;-76
2024/03/04 04:43:20;;;;;;;19.50;11.88;;;6.60;99.90;;;;;;5110690;27;20200;-76
2024/03/04 04:45:47;;;;;;;18.55;13.18;;;6.70;99.90;;;;;;5026757;28;20208;-76
2024/03/04 04:48:15;;;;;;;18.10;13.35;;;6.70;99.90;;;;;;5045640;28;20196;-75
2024/03/04 04:50:42;;;;;;;21.33;13.73;;;6.70;99.90;;;;;;5046502;27;20550;-75
2024/03/04 04:53:08;;;;;;;19.10;13.45;;;6.80;99.90;;;;;;5077664;27;20631;-75
2024/03/04 04:55:36;;;;;;;18.63;13.10;;;6.90;99.90;;;;;;5061770;27;20201;-76
2024/03/04 04:58:04;;;;;;;21.77;15.82;;;6.90;99.90;;;;;;5027389;28;21037;-76
2024/03/04 05:00:31;;;;;;;21.33;13.55;;;6.90;99.90;;;;;;5045888;28;20210;-77
2024/03/04 05:02:58;;;;;;;23.30;14.45;;;6.80;99.90;;;;;;5119651;28;20305;-76
2024/03/04 05:05:24;;;;;;;21.55;15.05;;;6.80;99.90;;;;;;5074911;28;20200;-76
2024/03/04 05:07:51;;;;;;;26.87;14.67;;;6.90;99.90;;;;;;5079512;28;20213;-77
2024/03/04 05:10:18;;;;;;;23.23;16.65;;;6.90;99.90;;;;;;5114721;28;21001;-77
2024/03/04 05:12:48;;;;;;;25.15;16.65;;;7.00;99.90;;;;;;5045763;28;20294;-77
2024/03/04 05:15:16;;;;;;;23.52;15.00;;;7.00;99.90;;;;;;5125966;28;20229;-77
2024/03/04 05:17:43;;;;;;;21.92;16.10;;;7.00;99.90;;;;;;5066506;28;20200;-77
2024/03/04 05:20:15;;;;;;;20.70;13.07;;;7.00;99.90;;;;;;5055417;28;20675;-77
2024/03/04 05:22:42;;;;;;;20.23;13.07;;;7.20;99.90;;;;;;5076433;28;20729;-77
2024/03/04 05:25:09;;;;;;;20.13;13.85;;;7.00;99.90;;;;;;5040617;28;20195;-77
2024/03/04 05:27:36;;;;;;;20.27;13.57;;;7.10;99.90;;;;;;5030517;28;20544;-77
2024/03/04 05:30:04;;;;;;;23.63;14.63;;;7.10;99.90;;;;;;5041236;28;21152;-77
2024/03/04 05:32:31;;;;;;;24.30;16.33;;;7.00;99.90;;;;;;5046408;28;20761;-77
2024/03/04 05:34:57;;;;;;;20.67;15.20;;;7.10;99.90;;;;;;5061435;28;20227;-77
2024/03/04 05:37:24;;;;;;;24.40;14.00;;;7.00;99.90;;;;;;5020703;28;20197;-76
2024/03/04 05:39:51;;;;;;;22.03;14.17;;;7.10;99.90;;;;;;5027431;28;20227;-76
2024/03/04 05:42:18;;;;;;;22.85;14.57;;;7.00;99.90;;;;;;5039128;28;20632;-76
2024/03/04 05:44:45;;;;;;;23.60;14.03;;;7.30;99.90;;;;;;5044969;28;20240;-75
2024/03/04 05:47:12;;;;;;;20.37;15.17;;;7.10;99.90;;;;;;5063037;28;21167;-75
2024/03/04 05:49:40;;;;;;;24.43;14.87;;;7.10;99.90;;;;;;5108180;28;21179;-76
2024/03/04 05:52:07;;;;;;;20.30;14.98;;;7.10;99.90;;;;;;5008900;28;20619;-76
2024/03/04 05:54:33;;;;;;;22.40;14.53;;;7.10;99.90;;;;;;5040669;28;20200;-75
2024/03/04 05:57:00;;;;;;;23.27;15.33;;;7.00;99.90;;;;;;5091811;27;20619;-75
2024/03/04 05:59:27;;;;;;;18.90;13.83;;;7.20;99.90;;;;;;5107577;27;20703;-75
2024/03/04 06:01:54;;;;;;;22.50;13.77;;;7.20;99.90;;;;;;5053979;27;20619;-75
2024/03/04 06:04:20;;;;;;;17.47;12.77;;;7.20;99.90;;;;;;5133120;27;20951;-75
2024/03/04 06:06:49;;;;;;;20.07;13.20;;;7.20;99.90;;;;;;5060866;27;20729;-75
2024/03/04 06:09:16;;;;;;;19.50;12.97;;;7.20;99.90;;;;;;5101155;27;20721;-75
2024/03/04 06:11:43;;;;;;;22.70;13.97;;;7.20;99.90;;;;;;5102978;27;20627;-74
2024/03/04 06:14:10;;;;;;;27.00;14.33;;;7.20;99.90;;;;;;5090303;27;20706;-76
2024/03/04 06:16:37;;;;;;;24.53;15.40;;;7.20;99.90;;;;;;5029979;27;21353;-76
2024/03/04 06:19:04;;;;;;;24.33;16.67;;;7.30;99.90;;;;;;5046953;27;20659;-76
2024/03/04 06:21:31;;;;;;;20.97;13.67;;;7.20;99.90;;;;;;5062509;27;21049;-75
2024/03/04 06:23:59;;;;;;;23.60;16.57;;;7.20;99.90;;;;;;5066186;27;20769;-76
2024/03/04 06:26:26;;;;;;;28.87;16.93;;;7.10;99.90;;;;;;5066330;27;20633;-75
2024/03/04 06:28:53;;;;;;;29.03;14.87;;;7.10;99.90;;;;;;5076448;27;21027;-75
2024/03/04 06:31:19;;;;;;;24.40;15.60;;;7.20;99.90;;;;;;5037679;27;20642;-75
2024/03/04 06:33:46;;;;;;;30.17;15.80;;;7.20;99.90;;;;;;5062326;27;20641;-75
2024/03/04 06:36:13;;;;;;;26.87;16.23;;;7.20;99.90;;;;;;5072660;27;20680;-75
2024/03/04 06:38:40;;;;;;;29.67;17.20;;;7.20;99.90;;;;;;5057431;27;20770;-73
2024/03/04 06:41:08;;;;;;;32.30;18.30;;;7.20;99.90;;;;;;5028425;28;20627;-74
2024/03/04 06:43:35;;;;;;;28.60;17.55;;;7.20;99.90;;;;;;5047550;28;21102;-74
2024/03/04 06:46:03;;;;;;;27.53;18.03;;;6.90;99.90;;;;;;5040032;27;20332;-74
2024/03/04 06:48:30;;;;;;;32.45;19.63;;;7.10;99.90;;;;;;5070540;27;20626;-74
2024/03/04 06:50:57;;;;;;;37.10;20.00;;;7.20;99.90;;;;;;5053823;27;20554;-74
2024/03/04 06:53:24;;;;;;;37.50;19.73;;;7.20;99.90;;;;;;5041182;27;20626;-75
2024/03/04 06:55:51;;;;;;;37.03;19.80;;;7.20;99.90;;;;;;5045509;27;20307;-75
2024/03/04 06:58:20;;;;;;;43.50;21.50;;;7.20;99.90;;;;;;5017897;28;20628;-75
2024/03/04 07:00:47;;;;;;;34.20;19.73;;;7.20;99.90;;;;;;5024952;27;20662;-75
2024/03/04 07:03:14;;;;;;;35.05;20.30;;;7.20;99.90;;;;;;5026353;27;20289;-75
2024/03/04 07:05:41;;;;;;;38.70;21.30;;;7.20;99.90;;;;;;5013176;28;20660;-75
2024/03/04 07:08:08;;;;;;;31.20;18.63;;;7.20;99.90;;;;;;5013396;28;20288;-75
2024/03/04 07:10:36;;;;;;;30.87;18.57;;;7.00;99.90;;;;;;5022638;28;20735;-75
2024/03/04 07:13:03;;;;;;;38.60;20.90;;;7.20;99.90;;;;;;5018675;28;20628;-75
2024/03/04 07:15:31;;;;;;;38.50;21.07;;;7.20;99.90;;;;;;5022326;28;20718;-75
2024/03/04 07:17:58;;;;;;;42.00;22.80;;;7.20;99.90;;;;;;5032590;28;20750;-75
2024/03/04 07:20:24;;;;;;;37.17;19.50;;;7.20;99.90;;;;;;5030038;28;21340;-75
2024/03/04 07:22:51;;;;;;;38.80;21.03;;;7.20;99.90;;;;;;5026405;28;20655;-75
2024/03/04 07:25:18;;;;;;;42.23;21.20;;;7.20;99.90;;;;;;5029998;28;20663;-75
2024/03/04 07:27:45;;;;;;;35.00;21.90;;;7.20;99.90;;;;;;5034083;28;20722;-75
2024/03/04 07:30:12;;;;;;;35.35;21.95;;;7.20;99.90;;;;;;5033336;28;20618;-75
2024/03/04 07:32:41;;;;;;;34.00;19.75;;;7.20;99.90;;;;;;5029768;28;20227;-75
2024/03/04 07:35:08;;;;;;;35.50;19.87;;;7.10;99.90;;;;;;5026688;28;20207;-75
2024/03/04 07:37:34;;;;;;;31.03;20.70;;;7.20;99.90;;;;;;5032026;28;20631;-76
2024/03/04 07:40:01;;;;;;;41.80;22.17;;;7.20;99.90;;;;;;5033507;28;21114;-75
2024/03/04 07:42:28;;;;;;;31.73;18.57;;;7.20;99.90;;;;;;5042545;27;20986;-76
2024/03/04 07:44:55;;;;;;;35.70;21.40;;;7.20;99.90;;;;;;5054031;27;21264;-76
2024/03/04 07:47:21;;;;;;;39.92;21.75;;;6.90;99.90;;;;;;5027471;28;21247;-76
2024/03/04 07:49:50;;;;;;;41.17;22.63;;;7.20;99.90;;;;;;5031623;28;20550;-76
2024/03/04 07:52:17;;;;;;;33.73;20.53;;;7.30;99.90;;;;;;5044909;27;21301;-75
2024/03/04 07:54:43;;;;;;;32.00;18.77;;;7.30;99.90;;;;;;5046426;27;20727;-76
2024/03/04 07:57:12;;;;;;;40.80;20.92;;;7.40;99.90;;;;;;5058799;27;20721;-75
2024/03/04 07:59:38;;;;;;;34.83;21.60;;;7.30;99.90;;;;;;5028093;28;20216;-76
2024/03/04 08:02:07;;;;;;;42.30;19.90;;;7.30;99.90;;;;;;5029725;28;20659;-77
2024/03/04 08:04:34;;;;;;;38.20;22.50;;;8.50;99.90;;;;;;5031646;28;21164;-75
2024/03/04 08:07:03;;;;;;;40.37;19.90;;;7.30;99.90;;;;;;5027211;28;20667;-75
2024/03/04 08:09:30;;;;;;;39.10;22.17;;;7.30;99.90;;;;;;5032235;28;20722;-74
2024/03/04 08:11:57;;;;;;;31.50;19.07;;;7.30;99.90;;;;;;5029839;28;20623;-74
2024/03/04 08:14:23;;;;;;;37.47;20.70;;;7.30;99.90;;;;;;5027345;28;20933;-75
2024/03/04 08:16:50;;;;;;;37.83;20.50;;;7.30;99.90;;;;;;5030240;28;20279;-75
2024/03/04 08:19:17;;;;;;;32.77;19.57;;;7.50;99.90;;;;;;5019888;28;20662;-75
2024/03/04 08:21:44;;;;;;;29.63;20.93;;;7.40;99.90;;;;;;5021039;28;20640;-74
2024/03/04 08:24:13;;;;;;;36.23;18.20;;;7.40;99.90;;;;;;5022797;28;21177;-75
2024/03/04 08:26:39;;;;;;;35.47;19.33;;;7.40;99.90;;;;;;5019635;28;20653;-75
2024/03/04 08:29:07;;;;;;;33.17;21.00;;;7.40;99.90;;;;;;5061560;27;20650;-75
2024/03/04 08:31:36;;;;;;;31.07;19.13;;;7.50;99.90;;;;;;5053969;27;20628;-74
2024/03/04 08:34:05;;;;;;;32.10;19.03;;;7.50;99.90;;;;;;5036364;27;20750;-75
2024/03/04 08:36:32;;;;;;;35.30;20.70;;;7.50;99.90;;;;;;5029503;28;20969;-75
2024/03/04 08:38:59;;;;;;;35.03;21.10;;;7.40;99.90;;;;;;5018786;28;20734;-75
2024/03/04 08:41:27;;;;;;;33.57;19.90;;;7.60;99.90;;;;;;5041946;27;20659;-75
2024/03/04 08:43:54;;;;;;;38.27;22.47;;;7.60;99.90;;;;;;5069918;27;20652;-77
2024/03/04 08:46:21;;;;;;;36.03;20.27;;;;;;;;;;5046413;27;20631;-76
2024/03/04 08:48:48;;;;;;;36.03;19.90;;;7.50;99.90;;;;;;5054948;27;20689;-76
2024/03/04 08:51:17;;;;;;;33.37;20.80;;;7.50;99.90;;;;;;5058379;27;20705;-77
2024/03/04 08:53:44;;;;;;;28.80;18.10;;;7.60;99.90;;;;;;5067397;27;21273;-76
2024/03/04 08:56:13;;;;;;;28.83;18.60;;;7.60;99.90;;;;;;5023062;28;20653;-76
2024/03/04 08:58:43;;;;;;;31.87;18.63;;;7.60;99.90;;;;;;5033920;27;20616;-76
2024/03/04 09:01:10;;;;;;;35.20;19.93;;;7.60;99.90;;;;;;5024790;28;20685;-76
2024/03/04 09:03:40;;;;;;;30.30;19.10;;;7.60;99.90;;;;;;5025161;28;20731;-76
2024/03/04 09:06:14;;;;;;;35.93;19.17;;;7.60;99.90;;;;;;5025503;28;20627;-77
2024/03/04 09:08:41;;;;;;;35.30;20.03;;;7.70;99.90;;;;;;5025006;28;20623;-76
2024/03/04 09:11:09;;;;;;;34.73;18.80;;;7.70;99.90;;;;;;5025476;28;20718;-76
2024/03/04 09:13:36;;;;;;;38.37;21.80;;;8.00;99.90;;;;;;5026704;28;20631;-76
2024/03/04 09:16:05;;;;;;;36.57;19.23;;;7.80;99.90;;;;;;5026063;28;20624;-76
2024/03/04 09:18:33;;;;;;;36.83;20.10;;;7.80;99.90;;;;;;5027320;28;21048;-76
2024/03/04 09:21:00;;;;;;;34.00;19.93;;;7.80;99.90;;;;;;5024099;28;21079;-76
2024/03/04 09:23:27;;;;;;;34.27;18.43;;;7.80;99.90;;;;;;5025528;28;21250;-77
2024/03/04 09:25:54;;;;;;;32.07;19.30;;;7.80;99.90;;;;;;5013677;28;20720;-78
2024/03/04 09:28:21;;;;;;;34.40;19.70;;;7.90;99.90;;;;;;5025424;28;20627;-77
2024/03/04 09:30:48;;;;;;;35.40;20.07;;;7.90;99.90;;;;;;5025664;28;20635;-77
2024/03/04 09:33:16;;;;;;;35.37;21.93;;;7.90;99.90;;;;;;5027688;28;20729;-78
2024/03/04 09:35:43;;;;;;;41.53;20.90;;;8.00;99.90;;;;;;5021297;28;20658;-77
2024/03/04 09:38:11;;;;;;;36.13;21.50;;;8.00;99.90;;;;;;5027270;28;20658;-77
2024/03/04 09:40:39;;;;;;;36.20;21.50;;;8.00;99.90;;;;;;5020340;28;20666;-78
2024/03/04 09:43:09;;;;;;;38.67;22.60;;;8.00;99.90;;;;;;5029042;27;21206;-77
2024/03/04 09:45:38;;;;;;;33.20;20.10;;;8.10;99.90;;;;;;5027811;28;21082;-77
2024/03/04 09:48:06;;;;;;;33.60;20.23;;;8.10;99.90;;;;;;5027124;28;21163;-77
2024/03/04 09:50:36;;;;;;;37.83;21.13;;;8.10;99.90;;;;;;5023262;28;20639;-77
2024/03/04 09:53:03;;;;;;;31.00;19.63;;;7.90;99.90;;;;;;5026701;28;21176;-77
2024/03/04 09:55:30;;;;;;;37.17;19.80;;;8.10;99.90;;;;;;5027867;28;20985;-77
2024/03/04 09:57:57;;;;;;;35.40;23.50;;;8.10;99.90;;;;;;5019871;28;20682;-77
2024/03/04 10:00:27;;;;;;;38.70;21.20;;;8.10;99.90;;;;;;5021884;28;20670;-77
2024/03/04 10:02:53;;;;;;;31.90;20.77;;;8.00;99.90;;;;;;5041346;27;21244;-77
2024/03/04 10:05:20;;;;;;;39.87;21.20;;;8.20;99.90;;;;;;5025601;28;20726;-77
2024/03/04 10:07:51;;;;;;;34.20;20.77;;;8.00;99.90;;;;;;5024002;28;20723;-77
2024/03/04 10:10:18;;;;;;;41.50;21.80;;;8.00;99.90;;;;;;5027572;28;20674;-77
2024/03/04 10:12:46;;;;;;;37.23;21.37;;;8.00;99.90;;;;;;5023951;28;20964;-77
2024/03/04 10:15:13;;;;;;;37.77;22.17;;;8.20;99.90;;;;;;5024612;28;20739;-75
2024/03/04 10:17:41;;;;;;;39.70;21.00;;;8.20;99.90;;;;;;5021285;28;20940;-76
2024/03/04 10:20:10;;;;;;;38.47;23.10;;;8.30;99.90;;;;;;5016149;28;21250;-75
2024/03/04 10:22:39;;;;;;;40.77;23.67;;;8.20;99.90;;;;;;5024835;28;20637;-76
2024/03/04 10:25:09;;;;;;;39.20;21.80;;;8.20;99.90;;;;;;5026476;28;20741;-77
2024/03/04 10:27:37;;;;;;;42.27;23.33;;;8.20;99.90;;;;;;5030188;28;20673;-77
2024/03/04 10:30:12;;;;;;;44.40;22.60;;;8.30;99.90;;;;;;5030388;28;20643;-76
2024/03/04 10:32:40;;;;;;;41.17;23.00;;;8.30;99.90;;;;;;5052427;27;20741;-75
2024/03/04 10:35:07;;;;;;;43.33;23.10;;;8.30;99.90;;;;;;5052461;27;20623;-76
2024/03/04 10:37:34;;;;;;;39.37;22.93;;;8.30;99.90;;;;;;5048904;27;20722;-77
2024/03/04 10:40:01;;;;;;;44.37;24.20;;;8.20;99.90;;;;;;5058945;27;21559;-76
2024/03/04 10:42:29;;;;;;;38.10;23.57;;;8.20;99.90;;;;;;5073539;27;20622;-76
2024/03/04 10:44:58;;;;;;;45.80;26.10;;;8.20;99.90;;;;;;5049840;27;20709;-76
2024/03/04 10:47:27;;;;;;;45.47;26.50;;;8.20;99.90;;;;;;5063431;27;20722;-76
2024/03/04 10:49:54;;;;;;;39.73;23.40;;;8.20;99.90;;;;;;5053241;27;20651;-76
2024/03/04 10:52:20;;;;;;;46.20;26.40;;;8.20;99.90;;;;;;5043902;27;20976;-77
2024/03/04 10:54:48;;;;;;;43.93;24.47;;;8.20;99.90;;;;;;5030639;28;20881;-77
2024/03/04 10:57:27;;;;;;;38.10;22.67;;;8.60;99.90;;;;;;5060130;27;20631;-77
2024/03/04 11:00:10;;;;;;;44.27;24.00;;;8.30;99.90;;;;;;5025183;27;20702;-77
2024/03/04 11:02:43;;;;;;;45.60;24.53;;;8.40;99.90;;;;;;5039111;27;20638;-77
2024/03/04 11:05:11;;;;;;;37.63;20.63;;;8.30;99.90;;;;;;5041101;27;21025;-77
2024/03/04 11:07:42;;;;;;;45.27;22.93;;;8.40;99.90;;;;;;5025727;27;20643;-77
2024/03/04 11:10:19;;;;;;;43.47;22.93;;;8.40;99.90;;;;;;5048106;27;20618;-77
2024/03/04 11:12:53;;;;;;;40.93;23.90;;;8.40;99.90;;;;;;5075362;27;20738;-77
2024/03/04 11:15:24;;;;;;;35.30;21.83;;;8.40;99.90;;;;;;5049786;27;20635;-78
2024/03/04 11:17:57;;;;;;;35.57;21.40;;;8.30;99.90;;;;;;5085300;27;20631;-77
2024/03/04 11:20:25;;;;;;;44.63;20.17;;;8.30;99.90;;;;;;5023838;28;20710;-78
2024/03/04 11:22:54;;;;;;;33.57;22.30;;;8.30;99.90;;;;;;5032444;28;20735;-77
2024/03/04 11:25:21;;;;;;;38.63;23.23;;;8.30;99.90;;;;;;5025977;28;20685;-78
2024/03/04 11:27:50;;;;;;;43.97;24.00;;;8.30;99.90;;;;;;5061641;27;20626;-76
2024/03/04 11:30:18;;;;;;;37.17;22.80;;;8.40;99.90;;;;;;5036568;27;20627;-76
2024/03/04 11:32:47;;;;;;;36.10;23.30;;;8.40;99.90;;;;;;5040523;27;20640;-75
2024/03/04 11:35:26;;;;;;;41.63;22.90;;;8.50;99.90;;;;;;5051621;27;20634;-75
2024/03/04 11:38:04;;;;;;;45.23;23.87;;;8.50;99.90;;;;;;5046148;27;21052;-78
2024/03/04 11:40:31;;;;;;;42.63;23.80;;;8.50;99.90;;;;;;5032600;27;20673;-78
2024/03/04 11:42:58;;;;;;;43.43;23.27;;;8.50;99.90;;;;;;5029298;28;20792;-77
2024/03/04 11:45:31;;;;;;;52.60;25.27;;;8.50;99.90;;;;;;5026518;28;21203;-76
2024/03/04 11:47:59;;;;;;;43.47;24.60;;;8.50;99.90;;;;;;5028359;28;20755;-75
2024/03/04 11:50:46;;;;;;;45.20;23.27;;;8.50;99.90;;;;;;5026884;27;20738;-75
2024/03/04 11:53:27;;;;;;;52.67;28.17;;;8.50;99.90;;;;;;5043763;27;20632;-75
2024/03/04 11:55:54;;;;;;;45.23;25.63;;;8.50;99.90;;;;;;5039384;27;20980;-75
2024/03/04 11:58:23;;;;;;;45.60;25.40;;;8.40;99.90;;;;;;5042074;27;20734;-75
2024/03/04 12:00:50;;;;;;;46.27;26.53;;;8.40;99.90;;;;;;5021660;28;21420;-75
2024/03/04 12:03:19;;;;;;;46.93;23.57;;;8.50;99.90;;;;;;5024457;28;20951;-75
2024/03/04 12:05:46;;;;;;;57.63;27.00;;;8.50;99.90;;;;;;5024712;28;20628;-75
2024/03/04 12:08:13;;;;;;;47.50;26.47;;;8.60;99.90;;;;;;5025050;28;20723;-75
2024/03/04 12:10:41;;;;;;;47.73;25.03;;;8.60;99.90;;;;;;5026779;28;20726;-75
2024/03/04 12:13:08;;;;;;;49.43;25.47;;;8.60;99.90;;;;;;5023453;28;20715;-75
2024/03/04 12:15:35;;;;;;;47.33;27.87;;;8.60;99.90;;;;;;5025139;28;20723;-74
2024/03/04 12:18:02;;;;;;;47.90;25.37;;;8.60;99.90;;;;;;5025485;28;20673;-73
2024/03/04 12:20:30;;;;;;;45.13;25.70;;;8.90;99.90;;;;;;5024194;28;21297;-74
2024/03/04 12:23:02;;;;;;;45.93;25.10;;;8.50;99.90;;;;;;5019584;28;20671;-75
2024/03/04 12:25:29;;;;;;;49.83;28.00;;;8.60;99.90;;;;;;5027377;28;21045;-74
2024/03/04 12:27:57;;;;;;;47.43;27.30;;;8.60;99.90;;;;;;5019869;28;20726;-74
2024/03/04 12:30:26;;;;;;;46.63;25.67;;;8.60;99.90;;;;;;5024458;28;20634;-74
2024/03/04 12:32:54;;;;;;;45.07;25.73;;;8.70;99.90;;;;;;5017488;28;20638;-74
2024/03/04 12:35:23;;;;;;;47.47;24.57;;;8.50;99.90;;;;;;5015946;28;20623;-74
2024/03/04 12:37:52;;;;;;;45.47;23.50;;;8.70;99.90;;;;;;5021427;28;21062;-74
2024/03/04 12:40:20;;;;;;;49.00;23.07;;;8.80;99.90;;;;;;5026494;28;20696;-74
2024/03/04 12:42:53;;;;;;;43.97;24.30;;;8.70;99.90;;;;;;5018730;28;20659;-74
2024/03/04 12:45:20;;;;;;;48.40;24.97;;;8.60;99.90;;;;;;5021019;28;20660;-74